sensor_id;sensor_type;location;lat;lon;timestamp;pressure;altitude;pressure_sealevel;temperature;humidity
53932;BME280;39844;52.496;13.482;2023-03-14T00:00:50;99038.63;;;11.92;80.79
53932;BME280;39844;52.496;13.482;2023-03-14T00:03:15;99055.34;;;11.89;81.01
53932;BME280;39844;52.496;13.482;2023-03-14T00:05:41;99054.81;;;11.80;80.85
53932;BME280;39844;52.496;13.482;2023-03-14T00:08:06;99053.31;;;11.73;81.17
53932;BME280;39844;52.496;13.482;2023-03-14T00:10:31;99046.47;;;11.69;81.82
53932;BME280;39844;52.496;13.482;2023-03-14T00:12:57;99034.28;;;11.65;81.66
53932;BME280;39844;52.496;13.482;2023-03-14T00:15:22;99035.25;;;11.62;82.38
53932;BME280;39844;52.496;13.482;2023-03-14T00:17:47;99037.84;;;11.64;82.58
53932;BME280;39844;52.496;13.482;2023-03-14T00:20:12;99016.03;;;11.62;82.44
53932;BME280;39844;52.496;13.482;2023-03-14T00:22:38;98999.50;;;11.58;82.26
53932;BME280;39844;52.496;13.482;2023-03-14T00:25:04;99007.38;;;11.58;82.78
53932;BME280;39844;52.496;13.482;2023-03-14T00:27:31;98998.72;;;11.56;83.43
53932;BME280;39844;52.496;13.482;2023-03-14T00:29:56;98991.63;;;11.58;83.18
53932;BME280;39844;52.496;13.482;2023-03-14T00:32:21;98982.97;;;11.55;82.80
53932;BME280;39844;52.496;13.482;2023-03-14T00:34:47;98985.75;;;11.52;83.38
53932;BME280;39844;52.496;13.482;2023-03-14T00:37:12;98983.13;;;11.52;83.80
53932;BME280;39844;52.496;13.482;2023-03-14T00:39:37;98975.28;;;11.50;84.10
53932;BME280;39844;52.496;13.482;2023-03-14T00:42:03;98967.50;;;11.47;84.31
53932;BME280;39844;52.496;13.482;2023-03-14T00:44:28;98962.47;;;11.41;84.40
53932;BME280;39844;52.496;13.482;2023-03-14T00:46:54;98968.84;;;11.34;84.45
53932;BME280;39844;52.496;13.482;2023-03-14T00:49:19;98982.03;;;11.32;86.13
53932;BME280;39844;52.496;13.482;2023-03-14T00:51:44;98971.44;;;11.35;86.70
53932;BME280;39844;52.496;13.482;2023-03-14T00:54:10;98970.63;;;11.33;85.99
53932;BME280;39844;52.496;13.482;2023-03-14T00:56:35;98967.06;;;11.34;86.93
53932;BME280;39844;52.496;13.482;2023-03-14T00:59:00;98954.69;;;11.38;86.85
53932;BME280;39844;52.496;13.482;2023-03-14T01:01:26;98951.31;;;11.34;86.22
53932;BME280;39844;52.496;13.482;2023-03-14T01:03:52;98955.75;;;11.32;87.33
53932;BME280;39844;52.496;13.482;2023-03-14T01:06:23;98943.50;;;11.33;87.15
53932;BME280;39844;52.496;13.482;2023-03-14T01:08:49;98926.09;;;11.30;87.26
53932;BME280;39844;52.496;13.482;2023-03-14T01:11:21;98920.06;;;11.27;86.83
53932;BME280;39844;52.496;13.482;2023-03-14T01:13:47;98929.78;;;11.25;87.42
53932;BME280;39844;52.496;13.482;2023-03-14T01:16:13;98936.78;;;11.24;88.14
53932;BME280;39844;52.496;13.482;2023-03-14T01:18:39;98943.06;;;11.20;87.39
53932;BME280;39844;52.496;13.482;2023-03-14T01:23:45;98963.16;;;11.21;88.19
53932;BME280;39844;52.496;13.482;2023-03-14T01:26:15;98986.78;;;11.21;88.37
53932;BME280;39844;52.496;13.482;2023-03-14T01:28:41;99006.97;;;11.21;88.33
53932;BME280;39844;52.496;13.482;2023-03-14T01:31:08;98999.13;;;11.19;88.28
53932;BME280;39844;52.496;13.482;2023-03-14T01:33:34;98993.88;;;11.19;88.65
53932;BME280;39844;52.496;13.482;2023-03-14T01:35:59;99005.16;;;11.21;88.55
53932;BME280;39844;52.496;13.482;2023-03-14T01:38:25;99005.03;;;11.26;88.81
53932;BME280;39844;52.496;13.482;2023-03-14T01:40:50;99006.63;;;11.30;88.14
53932;BME280;39844;52.496;13.482;2023-03-14T01:43:18;99003.94;;;11.31;87.96
53932;BME280;39844;52.496;13.482;2023-03-14T01:48:39;99018.75;;;11.34;87.76
53932;BME280;39844;52.496;13.482;2023-03-14T01:51:12;99016.94;;;11.36;88.02
53932;BME280;39844;52.496;13.482;2023-03-14T01:53:39;99025.63;;;11.38;87.84
53932;BME280;39844;52.496;13.482;2023-03-14T01:56:07;99027.38;;;11.37;87.98
53932;BME280;39844;52.496;13.482;2023-03-14T01:58:34;99023.78;;;11.40;87.82
53932;BME280;39844;52.496;13.482;2023-03-14T02:01:01;99014.19;;;11.39;87.31
53932;BME280;39844;52.496;13.482;2023-03-14T02:03:29;99015.22;;;11.35;87.27
53932;BME280;39844;52.496;13.482;2023-03-14T02:05:59;99002.16;;;11.33;87.70
53932;BME280;39844;52.496;13.482;2023-03-14T02:08:27;98997.00;;;11.30;87.67
53932;BME280;39844;52.496;13.482;2023-03-14T02:10:53;98986.59;;;11.27;88.04
53932;BME280;39844;52.496;13.482;2023-03-14T02:13:19;98998.91;;;11.25;88.02
53932;BME280;39844;52.496;13.482;2023-03-14T02:15:45;98991.22;;;11.21;88.09
53932;BME280;39844;52.496;13.482;2023-03-14T02:18:12;98976.28;;;11.21;88.15
53932;BME280;39844;52.496;13.482;2023-03-14T02:21:09;98971.97;;;11.20;88.71
53932;BME280;39844;52.496;13.482;2023-03-14T02:24:13;98983.38;;;11.19;88.36
53932;BME280;39844;52.496;13.482;2023-03-14T02:29:29;98977.50;;;11.11;88.57
53932;BME280;39844;52.496;13.482;2023-03-14T02:31:55;98970.56;;;11.10;88.89
53932;BME280;39844;52.496;13.482;2023-03-14T02:34:20;98969.63;;;11.11;89.05
53932;BME280;39844;52.496;13.482;2023-03-14T02:36:46;98968.72;;;11.12;89.07
53932;BME280;39844;52.496;13.482;2023-03-14T02:39:17;98971.47;;;11.09;88.57
53932;BME280;39844;52.496;13.482;2023-03-14T02:41:46;98964.50;;;11.08;88.76
53932;BME280;39844;52.496;13.482;2023-03-14T02:44:11;98962.78;;;11.07;88.35
53932;BME280;39844;52.496;13.482;2023-03-14T02:46:37;98964.50;;;11.08;89.60
53932;BME280;39844;52.496;13.482;2023-03-14T02:49:06;98964.38;;;11.11;88.71
53932;BME280;39844;52.496;13.482;2023-03-14T02:51:33;98945.19;;;11.09;88.36
53932;BME280;39844;52.496;13.482;2023-03-14T02:53:59;98952.28;;;11.07;88.27
53932;BME280;39844;52.496;13.482;2023-03-14T02:56:24;98944.31;;;11.10;88.61
53932;BME280;39844;52.496;13.482;2023-03-14T02:58:49;98929.44;;;11.09;88.54
53932;BME280;39844;52.496;13.482;2023-03-14T03:01:15;98923.34;;;11.09;88.48
53932;BME280;39844;52.496;13.482;2023-03-14T03:03:40;98925.06;;;11.10;87.64
53932;BME280;39844;52.496;13.482;2023-03-14T03:06:06;98918.09;;;11.09;87.48
53932;BME280;39844;52.496;13.482;2023-03-14T03:08:31;98919.06;;;11.06;87.51
53932;BME280;39844;52.496;13.482;2023-03-14T03:10:57;98906.06;;;11.03;87.29
53932;BME280;39844;52.496;13.482;2023-03-14T03:13:22;98897.34;;;11.01;88.14
53932;BME280;39844;52.496;13.482;2023-03-14T03:15:48;98881.72;;;10.98;88.19
53932;BME280;39844;52.496;13.482;2023-03-14T03:18:13;98873.09;;;10.95;88.26
53932;BME280;39844;52.496;13.482;2023-03-14T03:20:39;98878.41;;;10.93;88.58
53932;BME280;39844;52.496;13.482;2023-03-14T03:23:04;98871.44;;;10.92;88.46
53932;BME280;39844;52.496;13.482;2023-03-14T03:25:30;98867.94;;;10.92;88.74
53932;BME280;39844;52.496;13.482;2023-03-14T03:27:55;98869.69;;;10.93;88.47
53932;BME280;39844;52.496;13.482;2023-03-14T03:30:20;98877.59;;;10.91;88.17
53932;BME280;39844;52.496;13.482;2023-03-14T03:32:46;98895.13;;;10.91;87.82
53932;BME280;39844;52.496;13.482;2023-03-14T03:35:12;98898.69;;;10.88;88.28
53932;BME280;39844;52.496;13.482;2023-03-14T03:37:38;98886.53;;;10.86;87.83
53932;BME280;39844;52.496;13.482;2023-03-14T03:40:04;98905.84;;;10.83;88.53
53932;BME280;39844;52.496;13.482;2023-03-14T03:42:29;98890.19;;;10.82;88.59
53932;BME280;39844;52.496;13.482;2023-03-14T03:44:55;98896.28;;;10.82;88.67
53932;BME280;39844;52.496;13.482;2023-03-14T03:47:20;98898.91;;;10.82;88.76
53932;BME280;39844;52.496;13.482;2023-03-14T03:49:45;98900.59;;;10.83;88.48
53932;BME280;39844;52.496;13.482;2023-03-14T03:52:11;98890.97;;;10.84;88.60
53932;BME280;39844;52.496;13.482;2023-03-14T03:54:36;98883.97;;;10.84;88.81
53932;BME280;39844;52.496;13.482;2023-03-14T03:57:01;98882.13;;;10.86;88.41
53932;BME280;39844;52.496;13.482;2023-03-14T03:59:27;98884.75;;;10.86;87.97
53932;BME280;39844;52.496;13.482;2023-03-14T04:01:52;98882.09;;;10.88;88.45
53932;BME280;39844;52.496;13.482;2023-03-14T04:04:17;98891.63;;;10.90;87.77
53932;BME280;39844;52.496;13.482;2023-03-14T04:06:43;98886.50;;;10.87;87.78
53932;BME280;39844;52.496;13.482;2023-03-14T04:09:09;98898.81;;;10.85;87.50
53932;BME280;39844;52.496;13.482;2023-03-14T04:11:35;98881.44;;;10.81;87.56
53932;BME280;39844;52.496;13.482;2023-03-14T04:14:00;98876.19;;;10.81;87.62
53932;BME280;39844;52.496;13.482;2023-03-14T04:16:26;98885.00;;;10.80;87.58
53932;BME280;39844;52.496;13.482;2023-03-14T04:18:52;98901.63;;;10.79;87.52
53932;BME280;39844;52.496;13.482;2023-03-14T04:21:17;98886.84;;;10.76;87.49
53932;BME280;39844;52.496;13.482;2023-03-14T04:23:43;98881.66;;;10.75;87.71
53932;BME280;39844;52.496;13.482;2023-03-14T04:26:08;98868.56;;;10.75;87.69
53932;BME280;39844;52.496;13.482;2023-03-14T04:28:34;98865.94;;;10.75;87.66
53932;BME280;39844;52.496;13.482;2023-03-14T04:31:06;98872.94;;;10.74;87.61
53932;BME280;39844;52.496;13.482;2023-03-14T04:33:32;98868.41;;;10.78;87.01
53932;BME280;39844;52.496;13.482;2023-03-14T04:35:57;98864.19;;;10.74;86.67
53932;BME280;39844;52.496;13.482;2023-03-14T04:38:22;98859.06;;;10.71;87.08
53932;BME280;39844;52.496;13.482;2023-03-14T04:40:48;98856.44;;;10.71;87.13
53932;BME280;39844;52.496;13.482;2023-03-14T04:43:13;98845.06;;;10.70;86.94
53932;BME280;39844;52.496;13.482;2023-03-14T04:45:42;98851.19;;;10.71;86.52
53932;BME280;39844;52.496;13.482;2023-03-14T04:48:07;98839.88;;;10.69;86.40
53932;BME280;39844;52.496;13.482;2023-03-14T04:50:33;98841.72;;;10.67;86.56
53932;BME280;39844;52.496;13.482;2023-03-14T04:52:58;98836.47;;;10.67;86.46
53932;BME280;39844;52.496;13.482;2023-03-14T04:55:24;98833.03;;;10.65;85.92
53932;BME280;39844;52.496;13.482;2023-03-14T04:57:49;98823.56;;;10.61;86.32
53932;BME280;39844;52.496;13.482;2023-03-14T05:00:15;98816.72;;;10.57;86.58
53932;BME280;39844;52.496;13.482;2023-03-14T05:02:40;98828.16;;;10.54;86.55
53932;BME280;39844;52.496;13.482;2023-03-14T05:05:06;98831.66;;;10.55;86.56
53932;BME280;39844;52.496;13.482;2023-03-14T05:07:31;98828.09;;;10.56;86.40
53932;BME280;39844;52.496;13.482;2023-03-14T05:09:56;98839.44;;;10.56;86.07
53932;BME280;39844;52.496;13.482;2023-03-14T05:12:22;98836.03;;;10.54;86.16
53932;BME280;39844;52.496;13.482;2023-03-14T05:14:47;98836.94;;;10.53;85.82
53932;BME280;39844;52.496;13.482;2023-03-14T05:17:14;98831.66;;;10.55;86.22
53932;BME280;39844;52.496;13.482;2023-03-14T05:19:40;98823.66;;;10.58;85.70
53932;BME280;39844;52.496;13.482;2023-03-14T05:22:06;98816.72;;;10.57;85.35
53932;BME280;39844;52.496;13.482;2023-03-14T05:24:31;98811.56;;;10.54;85.50
53932;BME280;39844;52.496;13.482;2023-03-14T05:26:57;98799.34;;;10.53;85.58
53932;BME280;39844;52.496;13.482;2023-03-14T05:29:22;98803.69;;;10.54;85.44
53932;BME280;39844;52.496;13.482;2023-03-14T05:31:47;98803.69;;;10.54;84.70
53932;BME280;39844;52.496;13.482;2023-03-14T05:34:13;98808.94;;;10.54;84.68
53932;BME280;39844;52.496;13.482;2023-03-14T05:36:38;98802.66;;;10.58;83.82
53932;BME280;39844;52.496;13.482;2023-03-14T05:39:03;98800.00;;;10.59;83.65
53932;BME280;39844;52.496;13.482;2023-03-14T05:41:29;98809.47;;;10.63;83.37
53932;BME280;39844;52.496;13.482;2023-03-14T05:43:54;98803.25;;;10.66;82.62
53932;BME280;39844;52.496;13.482;2023-03-14T05:46:19;98801.44;;;10.68;82.31
53932;BME280;39844;52.496;13.482;2023-03-14T05:48:45;98815.38;;;10.70;81.65
53932;BME280;39844;52.496;13.482;2023-03-14T05:51:10;98805.69;;;10.72;81.73
53932;BME280;39844;52.496;13.482;2023-03-14T05:53:35;98817.06;;;10.71;81.30
53932;BME280;39844;52.496;13.482;2023-03-14T05:56:01;98813.59;;;10.70;81.32
53932;BME280;39844;52.496;13.482;2023-03-14T05:58:26;98808.34;;;10.70;81.23
53932;BME280;39844;52.496;13.482;2023-03-14T06:00:52;98802.25;;;10.70;80.98
53932;BME280;39844;52.496;13.482;2023-03-14T06:03:17;98803.84;;;10.74;80.17
53932;BME280;39844;52.496;13.482;2023-03-14T06:05:42;98811.63;;;10.77;80.02
53932;BME280;39844;52.496;13.482;2023-03-14T06:08:08;98809.78;;;10.79;79.40
53932;BME280;39844;52.496;13.482;2023-03-14T06:10:35;98805.41;;;10.79;79.38
53932;BME280;39844;52.496;13.482;2023-03-14T06:13:00;98810.59;;;10.81;79.16
53932;BME280;39844;52.496;13.482;2023-03-14T06:15:25;98816.63;;;10.83;78.54
53932;BME280;39844;52.496;13.482;2023-03-14T06:17:51;98806.13;;;10.83;78.49
53932;BME280;39844;52.496;13.482;2023-03-14T06:20:16;98789.41;;;10.86;78.39
53932;BME280;39844;52.496;13.482;2023-03-14T06:22:41;98801.53;;;10.90;78.17
53932;BME280;39844;52.496;13.482;2023-03-14T06:25:07;98797.94;;;10.92;77.28
53932;BME280;39844;52.496;13.482;2023-03-14T06:27:33;98817.88;;;10.98;77.15
53932;BME280;39844;52.496;13.482;2023-03-14T06:29:58;98814.19;;;11.03;76.48
53932;BME280;39844;52.496;13.482;2023-03-14T06:32:24;98813.22;;;11.06;76.28
53932;BME280;39844;52.496;13.482;2023-03-14T06:34:49;98811.38;;;11.08;75.75
53932;BME280;39844;52.496;13.482;2023-03-14T06:37:15;98810.44;;;11.09;76.06
53932;BME280;39844;52.496;13.482;2023-03-14T06:39:40;98814.72;;;11.11;75.97
53932;BME280;39844;52.496;13.482;2023-03-14T06:42:05;98804.13;;;11.14;75.52
53932;BME280;39844;52.496;13.482;2023-03-14T06:44:31;98808.34;;;11.18;74.95
53932;BME280;39844;52.496;13.482;2023-03-14T06:46:56;98818.72;;;11.21;74.96
53932;BME280;39844;52.496;13.482;2023-03-14T06:49:22;98816.78;;;11.26;74.48
53932;BME280;39844;52.496;13.482;2023-03-14T06:51:47;98823.66;;;11.30;74.14
53932;BME280;39844;52.496;13.482;2023-03-14T06:54:13;98831.47;;;11.32;73.99
53932;BME280;39844;52.496;13.482;2023-03-14T06:56:39;98829.63;;;11.34;74.23
53932;BME280;39844;52.496;13.482;2023-03-14T06:59:04;98830.50;;;11.34;74.12
53932;BME280;39844;52.496;13.482;2023-03-14T07:01:30;98847.97;;;11.35;73.63
53932;BME280;39844;52.496;13.482;2023-03-14T07:03:56;98845.25;;;11.38;73.23
53932;BME280;39844;52.496;13.482;2023-03-14T07:06:22;98858.13;;;11.44;73.58
53932;BME280;39844;52.496;13.482;2023-03-14T07:08:47;98853.50;;;11.51;73.07
53932;BME280;39844;52.496;13.482;2023-03-14T07:11:13;98855.97;;;11.56;72.74
53932;BME280;39844;52.496;13.482;2023-03-14T07:13:39;98854.91;;;11.60;72.35
53932;BME280;39844;52.496;13.482;2023-03-14T07:16:05;98852.19;;;11.63;71.87
53932;BME280;39844;52.496;13.482;2023-03-14T07:18:30;98854.78;;;11.64;71.91
53932;BME280;39844;52.496;13.482;2023-03-14T07:20:55;98861.00;;;11.62;71.77
53932;BME280;39844;52.496;13.482;2023-03-14T07:23:21;98864.59;;;11.59;72.00
53932;BME280;39844;52.496;13.482;2023-03-14T07:25:46;98871.63;;;11.59;72.24
53932;BME280;39844;52.496;13.482;2023-03-14T07:28:11;98870.75;;;11.58;72.28
53932;BME280;39844;52.496;13.482;2023-03-14T07:30:37;98875.16;;;11.58;72.31
53932;BME280;39844;52.496;13.482;2023-03-14T07:33:02;98878.56;;;11.60;72.60
53932;BME280;39844;52.496;13.482;2023-03-14T07:35:27;98863.63;;;11.62;72.19
53932;BME280;39844;52.496;13.482;2023-03-14T07:37:53;98863.56;;;11.63;72.15
53932;BME280;39844;52.496;13.482;2023-03-14T07:40:19;98869.72;;;11.62;72.33
53932;BME280;39844;52.496;13.482;2023-03-14T07:42:44;98872.47;;;11.59;72.27
53932;BME280;39844;52.496;13.482;2023-03-14T07:45:10;98862.09;;;11.56;72.23
53932;BME280;39844;52.496;13.482;2023-03-14T07:47:36;98868.31;;;11.54;72.18
53932;BME280;39844;52.496;13.482;2023-03-14T07:50:03;98880.59;;;11.53;72.01
53932;BME280;39844;52.496;13.482;2023-03-14T07:52:28;98879.03;;;11.48;72.22
53932;BME280;39844;52.496;13.482;2023-03-14T07:54:53;98870.34;;;11.46;72.76
53932;BME280;39844;52.496;13.482;2023-03-14T07:57:19;98867.72;;;11.46;72.60
53932;BME280;39844;52.496;13.482;2023-03-14T07:59:44;98872.06;;;11.47;72.62
53932;BME280;39844;52.496;13.482;2023-03-14T08:02:13;98870.28;;;11.47;72.70
53932;BME280;39844;52.496;13.482;2023-03-14T08:04:39;98873.78;;;11.48;72.59
53932;BME280;39844;52.496;13.482;2023-03-14T08:07:04;98858.78;;;11.51;73.09
53932;BME280;39844;52.496;13.482;2023-03-14T08:09:30;98861.22;;;11.56;73.04
53932;BME280;39844;52.496;13.482;2023-03-14T08:11:55;98856.47;;;11.65;72.54
53932;BME280;39844;52.496;13.482;2023-03-14T08:14:21;98850.94;;;11.73;72.43
53932;BME280;39844;52.496;13.482;2023-03-14T08:16:46;98845.28;;;11.83;71.61
53932;BME280;39844;52.496;13.482;2023-03-14T08:19:11;98852.00;;;11.90;71.34
53932;BME280;39844;52.496;13.482;2023-03-14T08:21:37;98854.44;;;11.95;70.95
53932;BME280;39844;52.496;13.482;2023-03-14T08:24:02;98845.47;;;12.00;70.59
53932;BME280;39844;52.496;13.482;2023-03-14T08:26:27;98845.16;;;12.08;70.92
53932;BME280;39844;52.496;13.482;2023-03-14T08:28:52;98839.72;;;12.13;70.75
53932;BME280;39844;52.496;13.482;2023-03-14T08:31:18;98850.97;;;12.16;70.31
53932;BME280;39844;52.496;13.482;2023-03-14T08:33:43;98860.47;;;12.20;69.85
53932;BME280;39844;52.496;13.482;2023-03-14T08:36:09;98851.50;;;12.24;69.71
53932;BME280;39844;52.496;13.482;2023-03-14T08:38:34;98869.81;;;12.27;69.54
53932;BME280;39844;52.496;13.482;2023-03-14T08:41:01;98854.69;;;12.32;69.05
53932;BME280;39844;52.496;13.482;2023-03-14T08:43:27;98859.88;;;12.34;68.60
53932;BME280;39844;52.496;13.482;2023-03-14T08:45:56;98862.59;;;12.32;68.86
53932;BME280;39844;52.496;13.482;2023-03-14T08:48:22;98859.97;;;12.32;68.79
53932;BME280;39844;52.496;13.482;2023-03-14T08:50:47;98866.78;;;12.36;68.79
53932;BME280;39844;52.496;13.482;2023-03-14T08:53:13;98870.28;;;12.37;68.75
53932;BME280;39844;52.496;13.482;2023-03-14T08:55:38;98871.94;;;12.39;68.78
53932;BME280;39844;52.496;13.482;2023-03-14T08:58:03;98871.81;;;12.42;68.61
53932;BME280;39844;52.496;13.482;2023-03-14T09:00:29;98863.91;;;12.42;68.23
53932;BME280;39844;52.496;13.482;2023-03-14T09:02:54;98882.25;;;12.44;68.17
53932;BME280;39844;52.496;13.482;2023-03-14T09:05:19;98864.72;;;12.44;67.95
53932;BME280;39844;52.496;13.482;2023-03-14T09:07:45;98863.66;;;12.48;68.30
53932;BME280;39844;52.496;13.482;2023-03-14T09:10:10;98867.88;;;12.52;68.09
53932;BME280;39844;52.496;13.482;2023-03-14T09:12:36;98867.75;;;12.55;67.86
53932;BME280;39844;52.496;13.482;2023-03-14T09:15:01;98856.97;;;12.61;67.88
53932;BME280;39844;52.496;13.482;2023-03-14T09:17:27;98854.06;;;12.67;67.48
53932;BME280;39844;52.496;13.482;2023-03-14T09:19:52;98849.34;;;12.76;67.14
53932;BME280;39844;52.496;13.482;2023-03-14T09:22:17;98840.00;;;12.89;67.10
53932;BME280;39844;52.496;13.482;2023-03-14T09:24:43;98845.72;;;12.98;66.54
53932;BME280;39844;52.496;13.482;2023-03-14T09:27:08;98838.03;;;12.94;65.54
53932;BME280;39844;52.496;13.482;2023-03-14T09:29:34;98833.88;;;12.88;66.17
53932;BME280;39844;52.496;13.482;2023-03-14T09:32:00;98838.41;;;12.85;66.22
53932;BME280;39844;52.496;13.482;2023-03-14T09:34:25;98836.56;;;12.87;66.19
53932;BME280;39844;52.496;13.482;2023-03-14T09:36:51;98835.78;;;12.85;65.89
53932;BME280;39844;52.496;13.482;2023-03-14T09:39:16;98834.00;;;12.85;65.83
53932;BME280;39844;52.496;13.482;2023-03-14T09:41:44;98826.03;;;12.87;65.38
53932;BME280;39844;52.496;13.482;2023-03-14T09:44:33;98843.41;;;12.91;65.80
53932;BME280;39844;52.496;13.482;2023-03-14T09:47:04;98828.94;;;13.01;64.87
53932;BME280;39844;52.496;13.482;2023-03-14T09:49:36;98828.28;;;13.16;65.04
53932;BME280;39844;52.496;13.482;2023-03-14T09:52:10;98840.88;;;13.28;63.53
53932;BME280;39844;52.496;13.482;2023-03-14T09:55:34;98838.25;;;13.28;62.70
53932;BME280;39844;52.496;13.482;2023-03-14T09:57:57;98837.59;;;13.23;62.87
53932;BME280;39844;52.496;13.482;2023-03-14T10:00:29;98835.09;;;13.20;62.53
53932;BME280;39844;52.496;13.482;2023-03-14T10:03:00;98830.81;;;13.17;62.96
53932;BME280;39844;52.496;13.482;2023-03-14T10:05:32;98830.97;;;13.14;62.34
53932;BME280;39844;52.496;13.482;2023-03-14T10:07:58;98844.94;;;13.16;62.63
53932;BME280;39844;52.496;13.482;2023-03-14T10:10:25;98852.00;;;13.16;62.60
53932;BME280;39844;52.496;13.482;2023-03-14T10:13:20;98843.22;;;13.15;61.93
53932;BME280;39844;52.496;13.482;2023-03-14T10:15:50;98848.28;;;13.20;62.01
53932;BME280;39844;52.496;13.482;2023-03-14T10:18:16;98849.09;;;13.22;61.62
53932;BME280;39844;52.496;13.482;2023-03-14T10:20:44;98836.56;;;13.27;62.16
53932;BME280;39844;52.496;13.482;2023-03-14T10:25:44;98844.25;;;13.32;62.02
53932;BME280;39844;52.496;13.482;2023-03-14T10:28:32;98846.81;;;13.33;61.57
53932;BME280;39844;52.496;13.482;2023-03-14T10:30:59;98847.66;;;13.34;60.93
53932;BME280;39844;52.496;13.482;2023-03-14T10:33:32;98849.44;;;13.33;60.92
53932;BME280;39844;52.496;13.482;2023-03-14T10:36:05;98852.22;;;13.30;61.17
53932;BME280;39844;52.496;13.482;2023-03-14T10:38:36;98848.00;;;13.26;61.14
53932;BME280;39844;52.496;13.482;2023-03-14T10:41:03;98848.94;;;13.25;61.13
53932;BME280;39844;52.496;13.482;2023-03-14T10:43:38;98855.06;;;13.25;60.80
53932;BME280;39844;52.496;13.482;2023-03-14T10:46:11;98843.66;;;13.25;59.96
53932;BME280;39844;52.496;13.482;2023-03-14T10:48:38;98848.28;;;13.20;60.54
53932;BME280;39844;52.496;13.482;2023-03-14T10:51:08;98851.72;;;13.22;60.38
53932;BME280;39844;52.496;13.482;2023-03-14T10:53:41;98843.66;;;13.25;60.44
53932;BME280;39844;52.496;13.482;2023-03-14T10:56:09;98846.25;;;13.26;60.51
53932;BME280;39844;52.496;13.482;2023-03-14T10:58:43;98848.88;;;13.26;60.62
53932;BME280;39844;52.496;13.482;2023-03-14T11:07:33;98853.53;;;13.20;60.31
53932;BME280;39844;52.496;13.482;2023-03-14T11:10:24;98848.09;;;13.24;60.59
53932;BME280;39844;52.496;13.482;2023-03-14T11:16:08;98846.53;;;13.39;60.19
53932;BME280;39844;52.496;13.482;2023-03-14T11:24:36;98846.13;;;13.48;60.34
53932;BME280;39844;52.496;13.482;2023-03-14T11:29:50;98853.25;;;13.46;60.60
53932;BME280;39844;52.496;13.482;2023-03-14T11:35:04;98845.34;;;13.46;61.00
53932;BME280;39844;52.496;13.482;2023-03-14T11:37:42;98842.63;;;13.48;60.82
53932;BME280;39844;52.496;13.482;2023-03-14T11:40:20;98839.97;;;13.48;60.83
53932;BME280;39844;52.496;13.482;2023-03-14T11:43:02;98851.38;;;13.48;61.13
53932;BME280;39844;52.496;13.482;2023-03-14T11:45:34;98855.75;;;13.49;61.43
53932;BME280;39844;52.496;13.482;2023-03-14T11:48:25;98848.53;;;13.53;61.53
53932;BME280;39844;52.496;13.482;2023-03-14T11:50:55;98853.81;;;13.53;61.52
53932;BME280;39844;52.496;13.482;2023-03-14T11:55:52;98841.56;;;13.52;63.90
53932;BME280;39844;52.496;13.482;2023-03-14T11:58:21;98847.69;;;13.52;63.71
53932;BME280;39844;52.496;13.482;2023-03-14T12:00:51;98842.56;;;13.49;63.44
53932;BME280;39844;52.496;13.482;2023-03-14T12:03:52;98845.19;;;13.49;64.00
53932;BME280;39844;52.496;13.482;2023-03-14T12:06:31;98851.38;;;13.48;64.51
53932;BME280;39844;52.496;13.482;2023-03-14T12:09:00;98845.41;;;13.45;64.74
53932;BME280;39844;52.496;13.482;2023-03-14T12:14:01;98835.00;;;13.42;65.56
53932;BME280;39844;52.496;13.482;2023-03-14T12:16:32;98835.78;;;13.44;65.55
53932;BME280;39844;52.496;13.482;2023-03-14T12:21:50;98830.88;;;13.55;66.31
53932;BME280;39844;52.496;13.482;2023-03-14T12:24:23;98823.53;;;13.61;66.18
53932;BME280;39844;52.496;13.482;2023-03-14T12:26:53;98819.81;;;13.65;65.91
53932;BME280;39844;52.496;13.482;2023-03-14T12:29:19;98812.63;;;13.69;65.19
53932;BME280;39844;52.496;13.482;2023-03-14T12:32:28;98813.50;;;13.69;65.30
53932;BME280;39844;52.496;13.482;2023-03-14T12:34:53;98810.63;;;13.74;65.69
53932;BME280;39844;52.496;13.482;2023-03-14T12:37:47;98804.59;;;13.72;65.73
53932;BME280;39844;52.496;13.482;2023-03-14T12:40:30;98810.84;;;13.69;65.45
53932;BME280;39844;52.496;13.482;2023-03-14T12:42:59;98810.91;;;13.68;65.61
53932;BME280;39844;52.496;13.482;2023-03-14T12:47:53;98807.34;;;13.69;68.37
53932;BME280;39844;52.496;13.482;2023-03-14T12:50:24;98799.69;;;13.64;68.86
53932;BME280;39844;52.496;13.482;2023-03-14T12:53:04;98804.09;;;13.64;68.93
53932;BME280;39844;52.496;13.482;2023-03-14T13:01:33;98794.41;;;13.64;70.68
53932;BME280;39844;52.496;13.482;2023-03-14T13:04:18;98794.69;;;13.58;69.45
53932;BME280;39844;52.496;13.482;2023-03-14T13:06:54;98796.75;;;13.52;69.38
53932;BME280;39844;52.496;13.482;2023-03-14T13:09:34;98794.63;;;13.41;70.38
53932;BME280;39844;52.496;13.482;2023-03-14T13:12:02;98803.09;;;13.29;71.44
53932;BME280;39844;52.496;13.482;2023-03-14T13:14:31;98805.47;;;13.15;73.05
53932;BME280;39844;52.496;13.482;2023-03-14T13:17:00;98813.25;;;12.98;75.23
53932;BME280;39844;52.496;13.482;2023-03-14T13:19:30;98818.41;;;12.81;76.32
53932;BME280;39844;52.496;13.482;2023-03-14T13:22:02;98818.41;;;12.60;77.46
53932;BME280;39844;52.496;13.482;2023-03-14T13:24:28;98815.91;;;12.37;77.59
53932;BME280;39844;52.496;13.482;2023-03-14T13:26:55;98814.16;;;12.16;79.79
53932;BME280;39844;52.496;13.482;2023-03-14T13:29:26;98809.59;;;11.99;81.92
53932;BME280;39844;52.496;13.482;2023-03-14T13:31:57;98806.63;;;11.85;83.85
53932;BME280;39844;52.496;13.482;2023-03-14T13:34:34;98790.94;;;11.84;85.29
53932;BME280;39844;52.496;13.482;2023-03-14T13:37:00;98787.13;;;11.91;87.12
53932;BME280;39844;52.496;13.482;2023-03-14T13:39:27;98786.75;;;12.00;88.19
53932;BME280;39844;52.496;13.482;2023-03-14T13:41:54;98777.63;;;12.30;90.66